createdAt,value
2018-03-01T00:00:23.221Z,9.50
2018-03-01T00:02:51.696Z,10.33
2018-03-01T00:05:20.707Z,7.77
2018-03-01T00:07:49.696Z,8.77
2018-03-01T00:10:18.453Z,9.13
2018-03-01T00:12:47.284Z,8.93
2018-03-01T00:15:16.699Z,8.93
2018-03-01T00:17:45.303Z,8.20
2018-03-01T00:20:14.060Z,9.53
2018-03-01T00:22:42.870Z,7.97
2018-03-01T00:25:11.587Z,7.50
2018-03-01T00:27:40.267Z,7.90
2018-03-01T00:30:09.293Z,9.50
2018-03-01T00:32:37.867Z,8.57
2018-03-01T00:35:08.112Z,8.20
2018-03-01T00:37:36.925Z,8.33
2018-03-01T00:40:06.029Z,8.40
2018-03-01T00:42:34.483Z,6.10
2018-03-01T00:45:02.996Z,8.57
2018-03-01T00:47:31.546Z,8.07
2018-03-01T00:50:00.303Z,7.60
2018-03-01T00:52:28.987Z,8.70
2018-03-01T00:54:57.598Z,8.53
2018-03-01T00:57:26.078Z,8.00
2018-03-01T00:59:54.812Z,7.67
2018-03-01T01:02:23.701Z,8.27
2018-03-01T01:04:52.251Z,7.93
2018-03-01T01:07:20.936Z,7.67
2018-03-01T01:09:49.523Z,7.90
2018-03-01T01:12:18.343Z,8.50
2018-03-01T01:14:46.790Z,7.87
2018-03-01T01:17:15.439Z,7.10
2018-03-01T01:19:44.105Z,7.20
2018-03-01T01:22:12.796Z,7.13
2018-03-01T01:24:41.644Z,6.83
2018-03-01T01:27:10.166Z,7.83
2018-03-01T01:29:38.791Z,7.83
2018-03-01T01:32:07.271Z,6.43
2018-03-01T01:34:35.956Z,6.57
2018-03-01T01:37:04.491Z,6.10
2018-03-01T01:39:32.938Z,6.53
2018-03-01T01:42:01.367Z,6.93
2018-03-01T01:44:30.723Z,7.03
2018-03-01T01:46:59.220Z,5.90
2018-03-01T01:49:28.159Z,8.77
2018-03-01T01:51:57.012Z,7.27
2018-03-01T01:54:25.750Z,6.87
2018-03-01T01:56:54.198Z,7.30
2018-03-01T01:59:22.689Z,7.10
2018-03-01T02:01:51.203Z,6.87
2018-03-01T02:04:19.780Z,6.57
2018-03-01T02:06:48.511Z,5.60
2018-03-01T02:09:16.950Z,6.73
2018-03-01T02:11:45.426Z,6.83
2018-03-01T02:14:13.890Z,7.90
2018-03-01T02:16:42.494Z,7.30
2018-03-01T02:19:11.331Z,7.90
2018-03-01T02:21:39.839Z,7.70
2018-03-01T02:24:08.294Z,7.53
2018-03-01T02:26:36.735Z,5.37
2018-03-01T02:29:05.219Z,6.70
2018-03-01T02:31:33.864Z,6.70
2018-03-01T02:34:02.605Z,4.70
2018-03-01T02:36:33.668Z,7.20
2018-03-01T02:39:02.104Z,7.10
2018-03-01T02:41:30.580Z,7.47
2018-03-01T02:43:59.165Z,6.57
2018-03-01T02:46:27.776Z,6.30
2018-03-01T02:48:56.431Z,7.07
2018-03-01T02:51:24.864Z,7.50
2018-03-01T02:53:53.329Z,6.57
2018-03-01T02:56:21.843Z,7.27
2018-03-01T02:58:50.251Z,7.30
2018-03-01T03:01:18.706Z,6.93
2018-03-01T03:03:47.227Z,6.87
2018-03-01T03:06:15.770Z,6.63
2018-03-01T03:08:44.150Z,7.33
2018-03-01T03:11:12.690Z,4.10
2018-03-01T03:13:41.148Z,7.40
2018-03-01T03:16:09.687Z,7.30
2018-03-01T03:18:38.333Z,7.43
2018-03-01T03:21:06.772Z,7.13
2018-03-01T03:23:35.285Z,7.20
2018-03-01T03:26:03.781Z,5.67
2018-03-01T03:28:32.242Z,7.50
2018-03-01T03:31:00.788Z,6.67
2018-03-01T03:33:29.414Z,6.90
2018-03-01T03:35:57.958Z,6.90
2018-03-01T03:38:26.647Z,6.90
2018-03-01T03:40:55.262Z,6.40
2018-03-01T03:43:23.811Z,7.10
2018-03-01T03:45:52.543Z,6.83
2018-03-01T03:48:21.007Z,7.27
2018-03-01T03:50:49.820Z,7.13
2018-03-01T03:53:18.247Z,5.60
2018-03-01T03:55:46.674Z,7.67
2018-03-01T03:58:15.106Z,6.93
2018-03-01T04:00:43.971Z,7.60
2018-03-01T04:03:22.254Z,6.50
2018-03-01T04:05:57.917Z,7.30
2018-03-01T04:08:26.387Z,6.30
2018-03-01T04:10:54.885Z,6.87
2018-03-01T04:13:23.521Z,5.93
2018-03-01T04:15:52.247Z,5.83
2018-03-01T04:18:20.891Z,7.00
2018-03-01T04:20:49.443Z,5.90
2018-03-01T04:23:18.222Z,6.80
2018-03-01T04:25:46.774Z,7.70
2018-03-01T04:28:15.411Z,7.60
2018-03-01T04:30:44.147Z,7.27
2018-03-01T04:33:12.600Z,7.40
2018-03-01T04:35:41.330Z,7.17
2018-03-01T04:38:09.956Z,6.37
2018-03-01T04:40:38.675Z,6.97
2018-03-01T04:43:07.119Z,6.00
2018-03-01T04:45:35.647Z,6.33
2018-03-01T04:48:04.084Z,5.00
2018-03-01T04:50:32.810Z,7.17
2018-03-01T04:53:01.320Z,6.40
2018-03-01T04:55:29.767Z,6.90
2018-03-01T04:57:58.641Z,5.13
2018-03-01T05:03:22.411Z,5.90
2018-03-01T05:05:51.677Z,8.10
2018-03-01T05:08:21.990Z,7.10
2018-03-01T05:10:51.820Z,7.67
2018-03-01T05:13:21.477Z,7.93
2018-03-01T05:15:51.204Z,7.17
2018-03-01T05:18:21.030Z,6.50
2018-03-01T05:20:49.648Z,7.30
2018-03-01T05:23:18.610Z,7.23
2018-03-01T05:25:47.324Z,7.57
2018-03-01T05:28:15.664Z,7.20
2018-03-01T05:30:44.078Z,7.43
2018-03-01T05:33:12.351Z,8.70
2018-03-01T05:35:40.662Z,7.57
2018-03-01T05:38:08.945Z,9.10
2018-03-01T05:40:37.991Z,7.30
2018-03-01T05:43:06.581Z,7.53
2018-03-01T05:45:34.985Z,8.10
2018-03-01T05:48:03.972Z,8.63
2018-03-01T05:50:34.074Z,7.90
2018-03-01T05:53:02.723Z,7.73
2018-03-01T05:55:31.062Z,7.97
2018-03-01T05:57:59.426Z,8.40
2018-03-01T06:00:27.761Z,7.80
2018-03-01T06:02:56.295Z,8.27
2018-03-01T06:05:24.611Z,9.20
2018-03-01T06:07:53.120Z,8.37
2018-03-01T06:10:21.502Z,9.10
2018-03-01T06:12:49.987Z,8.23
2018-03-01T06:15:18.527Z,7.77
2018-03-01T06:17:46.851Z,8.87
2018-03-01T06:20:15.559Z,5.47
2018-03-01T06:22:43.952Z,8.80
2018-03-01T06:25:12.278Z,9.10
2018-03-01T06:27:40.702Z,9.20
2018-03-01T06:30:09.254Z,8.50
2018-03-01T06:32:37.584Z,9.20
2018-03-01T06:35:05.955Z,8.30
2018-03-01T06:37:34.256Z,8.60
2018-03-01T06:40:02.551Z,9.53
2018-03-01T06:42:30.924Z,9.63
2018-03-01T06:44:59.220Z,10.40
2018-03-01T06:47:27.783Z,8.80
2018-03-01T06:49:56.087Z,10.40
2018-03-01T06:52:24.647Z,9.50
2018-03-01T06:54:53.023Z,10.47
2018-03-01T06:57:21.349Z,8.37
2018-03-01T06:59:49.680Z,10.30
2018-03-01T07:02:18.376Z,8.30
2018-03-01T07:04:46.667Z,9.00
2018-03-01T07:07:14.986Z,7.20
2018-03-01T07:09:43.414Z,5.07
2018-03-01T07:12:11.787Z,9.70
2018-03-01T07:14:40.239Z,7.10
2018-03-01T07:17:08.564Z,6.70
2018-03-01T07:19:36.932Z,9.50
2018-03-01T07:22:05.334Z,8.67
2018-03-01T07:24:33.697Z,8.80
2018-03-01T07:27:02.099Z,6.37
2018-03-01T07:29:30.533Z,9.57
2018-03-01T07:31:58.864Z,9.90
2018-03-01T07:34:27.379Z,9.53
2018-03-01T07:36:55.723Z,9.87
2018-03-01T07:39:24.034Z,9.80
2018-03-01T07:41:52.376Z,9.40
2018-03-01T07:44:20.906Z,10.10
2018-03-01T07:46:49.280Z,8.07
2018-03-01T07:49:17.559Z,9.00
2018-03-01T07:51:45.847Z,10.80
2018-03-01T07:54:14.296Z,8.97
2018-03-01T07:56:42.603Z,9.90
2018-03-01T07:59:11.589Z,12.03
2018-03-01T08:01:39.935Z,9.97
2018-03-01T08:04:08.219Z,9.73
2018-03-01T08:06:36.567Z,8.90
2018-03-01T08:09:05.633Z,9.57
2018-03-01T08:11:33.976Z,9.90
2018-03-01T08:14:02.390Z,10.37
2018-03-01T08:16:30.784Z,9.23
2018-03-01T08:18:59.114Z,8.43
2018-03-01T08:21:27.469Z,10.30
2018-03-01T08:23:55.775Z,10.57
2018-03-01T08:26:24.771Z,10.43
2018-03-01T08:28:53.560Z,10.23
2018-03-01T08:31:21.917Z,10.90
2018-03-01T08:33:50.231Z,11.93
2018-03-01T08:36:18.554Z,9.70
2018-03-01T08:38:46.886Z,10.60
2018-03-01T08:41:15.390Z,8.37
2018-03-01T08:43:43.871Z,10.23
2018-03-01T08:46:12.183Z,9.83
2018-03-01T08:48:40.831Z,9.63
2018-03-01T08:51:09.288Z,10.57
2018-03-01T08:53:37.979Z,9.63
2018-03-01T08:56:06.314Z,10.67
2018-03-01T08:58:34.811Z,6.70
2018-03-01T09:01:03.102Z,8.37
2018-03-01T09:03:31.391Z,10.27
2018-03-01T09:06:00.100Z,7.50
2018-03-01T09:08:28.419Z,9.27
2018-03-01T09:10:57.049Z,8.70
2018-03-01T09:13:25.886Z,9.47
2018-03-01T09:15:54.285Z,10.57
2018-03-01T09:18:22.638Z,7.07
2018-03-01T09:20:51.040Z,9.03
2018-03-01T09:23:19.406Z,10.30
2018-03-01T09:25:47.718Z,8.43
2018-03-01T09:28:16.067Z,8.90
2018-03-01T09:30:44.406Z,8.30
2018-03-01T09:33:12.791Z,9.37
2018-03-01T09:35:41.147Z,7.70
2018-03-01T09:38:09.502Z,10.00
2018-03-01T09:40:38.011Z,8.80
2018-03-01T09:43:07.486Z,10.07
2018-03-01T09:45:35.815Z,9.73
2018-03-01T09:48:04.084Z,9.90
2018-03-01T09:50:32.415Z,9.53
2018-03-01T09:53:00.700Z,10.67
2018-03-01T09:55:29.023Z,9.90
2018-03-01T09:57:57.377Z,10.80
2018-03-01T10:00:25.716Z,11.10
2018-03-01T10:02:54.214Z,10.40
2018-03-01T10:05:22.526Z,10.70
2018-03-01T10:07:51.140Z,10.40
2018-03-01T10:10:19.442Z,10.37
2018-03-01T10:12:47.819Z,11.43
2018-03-01T10:15:16.297Z,9.60
2018-03-01T10:17:44.600Z,7.83
2018-03-01T10:20:13.227Z,8.63
2018-03-01T10:22:42.541Z,11.07
2018-03-01T10:25:10.982Z,9.80
2018-03-01T10:27:40.189Z,9.60
2018-03-01T10:30:08.567Z,10.07
2018-03-01T10:32:36.978Z,10.87
2018-03-01T10:35:05.307Z,10.60
2018-03-01T10:37:33.654Z,9.73
2018-03-01T10:40:01.899Z,9.33
2018-03-01T10:42:30.248Z,9.57
2018-03-01T10:44:58.679Z,9.90
2018-03-01T10:47:27.016Z,10.10
2018-03-01T10:49:55.310Z,11.13
2018-03-01T10:52:23.723Z,10.97
2018-03-01T10:54:52.052Z,10.60
2018-03-01T10:57:20.387Z,9.70
2018-03-01T10:59:48.699Z,11.10
2018-03-01T11:02:17.244Z,12.40
2018-03-01T11:04:45.556Z,10.30
2018-03-01T11:07:13.983Z,8.70
2018-03-01T11:09:42.420Z,9.00
2018-03-01T11:12:10.735Z,8.37
2018-03-01T11:14:39.883Z,9.40
2018-03-01T11:17:08.199Z,8.37
2018-03-01T11:19:36.543Z,10.10
2018-03-01T11:22:04.931Z,9.63
2018-03-01T11:24:34.209Z,10.87
2018-03-01T11:27:02.573Z,9.80
2018-03-01T11:29:30.937Z,10.80
2018-03-01T11:31:59.350Z,11.10
2018-03-01T11:34:27.630Z,10.80
2018-03-01T11:36:56.121Z,12.10
2018-03-01T11:39:24.600Z,10.93
2018-03-01T11:41:52.942Z,11.97
2018-03-01T11:44:21.579Z,10.30
2018-03-01T11:46:49.887Z,9.83
2018-03-01T11:49:18.183Z,10.13
2018-03-01T11:51:46.723Z,11.07
2018-03-01T11:54:15.023Z,10.17
2018-03-01T11:56:43.363Z,10.50
2018-03-01T11:59:11.904Z,11.17
2018-03-01T12:01:40.227Z,12.20
2018-03-01T12:04:08.538Z,12.00
2018-03-01T12:06:37.055Z,9.70
2018-03-01T12:09:06.358Z,10.27
2018-03-01T12:11:35.464Z,9.83
2018-03-01T12:14:03.955Z,10.10
2018-03-01T12:16:32.331Z,10.07
2018-03-01T12:19:00.667Z,9.87
2018-03-01T12:21:29.020Z,9.80
2018-03-01T12:23:57.566Z,11.20
2018-03-01T12:26:26.212Z,11.03
2018-03-01T12:28:54.575Z,10.17
2018-03-01T12:31:23.298Z,10.10
2018-03-01T12:33:51.616Z,11.03
2018-03-01T12:36:19.968Z,11.07
2018-03-01T12:38:48.264Z,10.70
2018-03-01T12:41:16.764Z,9.87
2018-03-01T12:43:45.223Z,9.83
2018-03-01T12:46:13.558Z,10.03
2018-03-01T12:48:42.320Z,9.40
2018-03-01T12:51:10.659Z,11.00
2018-03-01T12:53:38.942Z,9.70
2018-03-01T12:56:07.284Z,9.23
2018-03-01T12:58:35.600Z,9.50
2018-03-01T13:01:04.227Z,10.80
2018-03-01T13:03:32.791Z,10.40
2018-03-01T13:06:01.119Z,9.80
2018-03-01T13:08:29.836Z,9.40
2018-03-01T13:10:58.179Z,10.50
2018-03-01T13:13:26.703Z,10.07
2018-03-01T13:15:55.053Z,11.50
2018-03-01T13:18:23.392Z,11.10
2018-03-01T13:20:51.742Z,10.73
2018-03-01T13:23:20.148Z,11.50
2018-03-01T13:25:48.561Z,11.60
2018-03-01T13:28:16.875Z,10.67
2018-03-01T13:30:45.419Z,10.53
2018-03-01T13:33:14.098Z,9.90
2018-03-01T13:35:42.515Z,9.90
2018-03-01T13:38:12.595Z,11.30
2018-03-01T13:40:41.051Z,11.90
2018-03-01T13:43:09.685Z,12.40
2018-03-01T13:45:38.023Z,13.00
2018-03-01T13:48:07.840Z,12.20
2018-03-01T13:50:36.155Z,14.20
2018-03-01T13:53:04.483Z,11.77
2018-03-01T13:55:32.827Z,12.20
2018-03-01T13:58:01.186Z,11.70
2018-03-01T14:00:29.744Z,11.20
2018-03-01T14:02:58.309Z,10.70
2018-03-01T14:05:26.644Z,9.70
2018-03-01T14:07:54.971Z,11.00
2018-03-01T14:10:23.379Z,9.90
2018-03-01T14:12:51.687Z,9.30
2018-03-01T14:15:20.196Z,10.60
2018-03-01T14:17:48.943Z,10.73
2018-03-01T14:20:17.754Z,13.60
2018-03-01T14:22:46.215Z,9.73
2018-03-01T14:25:14.624Z,10.40
2018-03-01T14:27:43.018Z,10.30
2018-03-01T14:30:11.907Z,9.50
2018-03-01T14:32:40.319Z,10.10
2018-03-01T14:35:08.739Z,8.97
2018-03-01T14:37:37.026Z,10.90
2018-03-01T14:40:05.530Z,10.83
2018-03-01T14:42:33.819Z,10.23
2018-03-01T14:45:02.100Z,10.80
2018-03-01T14:47:30.512Z,10.33
2018-03-01T14:49:58.808Z,10.60
2018-03-01T14:52:27.173Z,10.67
2018-03-01T14:54:56.414Z,12.23
2018-03-01T14:57:25.167Z,10.43
2018-03-01T14:59:53.479Z,11.40
2018-03-01T15:02:22.215Z,9.67
2018-03-01T15:04:50.535Z,10.83
2018-03-01T15:07:19.215Z,8.00
2018-03-01T15:09:48.234Z,10.13
2018-03-01T15:12:16.816Z,10.77
2018-03-01T15:14:45.111Z,9.90
2018-03-01T15:17:13.418Z,10.90
2018-03-01T15:19:41.775Z,10.30
2018-03-01T15:22:10.167Z,9.90
2018-03-01T15:24:38.483Z,10.47
2018-03-01T15:27:06.843Z,11.97
2018-03-01T15:29:35.148Z,11.70
2018-03-01T15:32:03.683Z,11.60
2018-03-01T15:34:32.664Z,11.50
2018-03-01T15:37:01.028Z,11.67
2018-03-01T15:39:29.564Z,12.13
2018-03-01T15:41:58.004Z,10.37
2018-03-01T15:44:26.339Z,10.60
2018-03-01T15:46:54.760Z,10.77
2018-03-01T15:49:23.069Z,12.37
2018-03-01T15:51:51.383Z,12.20
2018-03-01T15:54:19.726Z,11.57
2018-03-01T15:56:48.119Z,12.50
2018-03-01T15:59:16.547Z,11.87
2018-03-01T16:01:44.852Z,12.47
2018-03-01T16:04:13.642Z,9.23
2018-03-01T16:06:42.621Z,12.27
2018-03-01T16:09:11.086Z,11.93
2018-03-01T16:11:39.405Z,9.47
2018-03-01T16:14:07.711Z,11.20
2018-03-01T16:16:36.053Z,11.17
2018-03-01T16:19:04.878Z,13.40
2018-03-01T16:21:34.126Z,11.63
2018-03-01T16:24:02.739Z,11.00
2018-03-01T16:26:31.112Z,10.47
2018-03-01T16:28:59.415Z,10.77
2018-03-01T16:31:27.762Z,11.27
2018-03-01T16:33:56.854Z,11.00
2018-03-01T16:36:25.206Z,10.80
2018-03-01T16:38:53.517Z,11.20
2018-03-01T16:41:21.925Z,11.57
2018-03-01T16:43:50.580Z,12.53
2018-03-01T16:46:19.140Z,12.80
2018-03-01T16:48:47.743Z,10.00
2018-03-01T16:51:16.120Z,12.90
2018-03-01T16:53:44.521Z,11.93
2018-03-01T16:56:12.843Z,13.85
2018-03-01T16:58:41.191Z,13.37
2018-03-01T17:01:09.610Z,11.67
2018-03-01T17:03:37.959Z,12.90
2018-03-01T17:06:06.663Z,11.43
2018-03-01T17:08:35.044Z,11.97
2018-03-01T17:11:03.644Z,11.87
2018-03-01T17:13:32.025Z,10.67
2018-03-01T17:16:00.369Z,12.60
2018-03-01T17:18:28.694Z,13.03
2018-03-01T17:20:57.183Z,12.30
2018-03-01T17:23:25.506Z,9.53
2018-03-01T17:25:53.836Z,11.50
2018-03-01T17:28:22.141Z,13.27
2018-03-01T17:30:50.947Z,12.23
2018-03-01T17:33:19.332Z,11.20
2018-03-01T17:35:47.871Z,11.13
2018-03-01T17:38:16.514Z,13.03
2018-03-01T17:40:44.863Z,12.73
2018-03-01T17:43:13.152Z,11.67
2018-03-01T17:45:41.495Z,12.30
2018-03-01T17:48:09.821Z,11.87
2018-03-01T17:50:38.169Z,12.17
2018-03-01T17:53:07.403Z,12.50
2018-03-01T17:55:35.740Z,12.80
2018-03-01T17:58:04.106Z,11.97
2018-03-01T18:00:32.479Z,10.27
2018-03-01T18:03:00.787Z,13.50
2018-03-01T18:05:29.772Z,12.37
2018-03-01T18:07:59.091Z,10.30
2018-03-01T18:10:28.215Z,13.00
2018-03-01T18:12:58.342Z,11.17
2018-03-01T18:15:27.404Z,14.37
2018-03-01T18:17:55.789Z,12.73
2018-03-01T18:20:24.185Z,12.50
2018-03-01T18:22:52.923Z,11.83
2018-03-01T18:25:21.387Z,13.00
2018-03-01T18:27:49.895Z,13.27
2018-03-01T18:30:18.395Z,11.70
2018-03-01T18:32:46.708Z,11.70
2018-03-01T18:35:15.028Z,12.70
2018-03-01T18:37:43.484Z,13.77
2018-03-01T18:40:12.051Z,11.50
2018-03-01T18:42:40.423Z,13.80
2018-03-01T18:45:08.729Z,13.77
2018-03-01T18:47:37.053Z,10.97
2018-03-01T18:50:05.413Z,11.97
2018-03-01T18:52:34.559Z,12.60
2018-03-01T18:55:02.996Z,13.60
2018-03-01T18:57:31.906Z,12.53
2018-03-01T19:00:00.346Z,13.10
2018-03-01T19:02:28.850Z,11.00
2018-03-01T19:04:57.495Z,14.20
2018-03-01T19:07:25.900Z,8.93
2018-03-01T19:09:54.233Z,12.60
2018-03-01T19:12:22.600Z,13.33
2018-03-01T19:14:50.880Z,11.30
2018-03-01T19:17:19.184Z,12.30
2018-03-01T19:19:47.675Z,11.87
2018-03-01T19:22:16.205Z,12.57
2018-03-01T19:24:44.592Z,11.00
2018-03-01T19:27:12.939Z,13.00
2018-03-01T19:29:42.141Z,13.37
2018-03-01T19:32:10.644Z,12.80
2018-03-01T19:34:40.103Z,13.00
2018-03-01T19:37:08.804Z,12.90
2018-03-01T19:39:37.868Z,12.17
2018-03-01T19:42:06.445Z,11.73
2018-03-01T19:44:34.759Z,12.60
2018-03-01T19:47:03.063Z,11.97
2018-03-01T19:49:31.440Z,12.60
2018-03-01T19:51:59.763Z,13.20
2018-03-01T19:54:28.167Z,12.77
2018-03-01T19:56:57.447Z,12.33
2018-03-01T19:59:25.986Z,13.37
2018-03-01T20:01:55.794Z,12.03
2018-03-01T20:04:24.376Z,13.00
2018-03-01T20:06:52.772Z,14.43
2018-03-01T20:09:21.105Z,10.30
2018-03-01T20:11:49.579Z,12.63
2018-03-01T20:14:18.022Z,12.97
2018-03-01T20:16:46.350Z,13.17
2018-03-01T20:19:14.663Z,13.43
2018-03-01T20:21:43.331Z,12.97
2018-03-01T20:24:12.115Z,11.73
2018-03-01T20:26:40.776Z,13.80
2018-03-01T20:29:09.321Z,13.13
2018-03-01T20:31:38.174Z,13.00
2018-03-01T20:34:07.094Z,10.73
2018-03-01T20:36:35.511Z,13.50
2018-03-01T20:39:03.877Z,10.03
2018-03-01T20:41:32.565Z,13.37
2018-03-01T20:44:01.070Z,13.70
2018-03-01T20:46:29.570Z,12.70
2018-03-01T20:48:58.307Z,11.50
2018-03-01T20:51:27.114Z,14.70
2018-03-01T20:53:55.964Z,11.43
2018-03-01T20:56:24.370Z,13.87
2018-03-01T20:58:52.740Z,12.60
2018-03-01T21:01:21.126Z,13.00
2018-03-01T21:03:49.742Z,12.30
2018-03-01T21:06:18.167Z,14.07
2018-03-01T21:08:46.632Z,14.80
2018-03-01T21:11:15.079Z,10.13
2018-03-01T21:13:43.485Z,15.70
2018-03-01T21:16:11.835Z,13.80
2018-03-01T21:18:40.155Z,13.67
2018-03-01T21:21:08.604Z,9.47
2018-03-01T21:23:37.022Z,14.37
2018-03-01T21:26:05.471Z,13.83
2018-03-01T21:28:33.857Z,13.97
2018-03-01T21:31:03.223Z,14.40
2018-03-01T21:33:31.622Z,13.23
2018-03-01T21:36:00.295Z,11.90
2018-03-01T21:38:28.599Z,13.83
2018-03-01T21:40:56.955Z,14.70
2018-03-01T21:43:25.756Z,13.67
2018-03-01T21:45:54.150Z,13.77
2018-03-01T21:48:22.485Z,13.93
2018-03-01T21:50:50.968Z,11.67
2018-03-01T21:53:19.446Z,14.47
2018-03-01T21:55:47.824Z,15.23
2018-03-01T21:58:16.171Z,11.37
2018-03-01T22:00:44.502Z,14.23
2018-03-01T22:03:12.952Z,15.90
2018-03-01T22:05:41.403Z,14.70
2018-03-01T22:08:09.752Z,15.60
2018-03-01T22:10:38.200Z,14.67
2018-03-01T22:13:06.852Z,13.57
2018-03-01T22:15:35.187Z,15.00
2018-03-01T22:18:03.773Z,11.87
2018-03-01T22:20:32.119Z,14.90
2018-03-01T22:23:00.470Z,13.10
2018-03-01T22:25:29.082Z,14.20
2018-03-01T22:27:57.390Z,13.23
2018-03-01T22:30:25.754Z,13.60
2018-03-01T22:32:54.108Z,14.07
2018-03-01T22:35:22.426Z,13.73
2018-03-01T22:37:50.740Z,15.40
2018-03-01T22:40:19.130Z,14.77
2018-03-01T22:42:47.420Z,14.90
2018-03-01T22:45:15.779Z,13.47
2018-03-01T22:47:44.102Z,14.60
2018-03-01T22:50:12.451Z,15.27
2018-03-01T22:52:41.170Z,14.83
2018-03-01T22:55:09.632Z,14.60
2018-03-01T22:57:37.967Z,11.33
2018-03-01T23:00:06.314Z,15.80
2018-03-01T23:02:34.965Z,15.03
2018-03-01T23:05:03.266Z,13.90
2018-03-01T23:07:31.608Z,13.90
2018-03-01T23:10:00.068Z,15.37
2018-03-01T23:12:28.498Z,16.03
2018-03-01T23:14:56.904Z,14.57
2018-03-01T23:17:25.335Z,15.03
2018-03-01T23:19:53.648Z,13.60
2018-03-01T23:22:22.092Z,14.13
2018-03-01T23:24:50.384Z,14.93
2018-03-01T23:27:18.853Z,15.30
2018-03-01T23:29:47.147Z,15.00
2018-03-01T23:32:15.603Z,14.57
2018-03-01T23:34:43.926Z,14.57
2018-03-01T23:37:12.247Z,14.80
2018-03-01T23:39:40.588Z,13.77
2018-03-01T23:42:09.090Z,14.30
2018-03-01T23:44:37.429Z,15.03
2018-03-01T23:47:05.760Z,14.73
2018-03-01T23:49:34.319Z,13.73
2018-03-01T23:52:02.636Z,15.17
2018-03-01T23:54:31.084Z,14.43
2018-03-01T23:56:59.441Z,14.03
2018-03-01T23:59:27.755Z,15.33
